Terminal Aerodrome Forecast
Issued by NWS Wichita, KS

Home | Current Version | Previous Version | Graphics & Text | Print | Product List | Glossary On
Versions: 1 2 3 4 5 6 7 8 9 10 11 12 13 14 15 16 17 18
000
FTUS43 KICT 250520
TAFICT
TAF
KICT 250520Z 2506/2606 09007KT P6SM OVC200
     FM251100 13007KT P6SM OVC150
     FM251800 10013KT P6SM VCSH BKN035 OVC150
     FM252300 01017KT P6SM VCSH OVC035=

USA.gov is the U.S. government's official web portal to all federal, state and local government web resources and services.